Pagrindinis puslapis
METAR-TAF:

METAR-TAF

Oro uostai :

Afonsos

Rio de Žaneiras, Rio de Janeiro, Brazilija

platuma: 22-52S, ilguma: 043-22W, Aukštis: 34 m

Dabartinis oras

Ataskaita buvo paskelbta 1 valandą ir 18 minutes, ne 22:00 UTC
Ramus vėjas
Temperatūra 26°C
Drėgmė 74%
Slėgis 1014 hPa
Matomumas 10 km arba daugiau
nėra debesų žemiau 1500 m ir nėra kamuolinių lietaus debesų

METAR: SBAF 162200Z 00000KT CAVOK 26/21 Q1014

Laikas: 20:18 (23:18 UTC)

Prognozė

Ataskaita buvo paskelbta 7 valandos ir 18 minutes, ne 16:00 UTC
Prognozė galioja nuo 16 metu 18 UTC su 17 metu 06 UTC
Vėjas 7 kt iš Pietų/Pietvakarių
Matomumas 10 km arba daugiau
nėra debesų žemiau 1500 m ir nėra kamuolinių lietaus debesų
Tapsmas
nuo 16 metu 19 UTC su 16 metu 21 UTC
Vėjas 7 kt iš Rytų

TAF: SBAF 161600Z 1618/1706 21007KT CAVOK TX29/1618Z TN24/1705Z BECMG 1619/1621 10007KT RMK PDU

Orai ataskaitas ir orų prognozės (METAR, TAF).

turimą stotys yra geltonos ir raudonos taškus žemėlapyje.

Perkelti pele per norėdami pamatyti stoties vardą.

Tada spustelėkite, norėdami matyti oro stebėjimo ir prognozės.

Norėdami pakeisti žemėlapį: spustelėkite ant žalios mygtukų su juodo kryžiaus žemyn,; žalią mygtuką su brūkšneliu, jei norite nutolinti; arba žalių rodyklių gretimoms žemėlapius.


METAR-TAF: